Time;durP1;ratioP1;P1;durP2;ratioP2;P2;SDS_P1;SDS_P2;PMS_P1;PMS_P2;Temp;Humidity;BMP_temperature;BMP_pressure;BME280_temperature;BME280_humidity;BME280_pressure;Samples;Min_cycle;Max_cycle;Signal;HPM_P1;HPM_P2
2023/09/24 00:02:20;;;;;;;2.00;1.80;;;11.70;99.90;;;;;;5044377;28;20033;-41
2023/09/24 00:04:46;;;;;;;1.92;1.60;;;11.70;99.90;;;;;;5047038;28;20021;-41
2023/09/24 00:07:14;;;;;;;1.90;1.80;;;11.70;99.90;;;;;;5049378;28;20039;-38
2023/09/24 00:09:40;;;;;;;1.73;1.63;;;11.60;99.90;;;;;;5046824;28;20044;-40
2023/09/24 00:12:05;;;;;;;2.50;1.83;;;11.70;99.90;;;;;;5044969;28;20041;-40
2023/09/24 00:14:31;;;;;;;2.72;2.20;;;11.60;99.90;;;;;;5047987;28;20029;-40
2023/09/24 00:16:57;;;;;;;2.70;2.03;;;11.60;99.90;;;;;;5043867;28;20082;-41
2023/09/24 00:19:26;;;;;;;2.05;1.75;;;11.60;99.90;;;;;;5047743;28;20513;-41
2023/09/24 00:21:52;;;;;;;3.35;1.70;;;11.50;99.90;;;;;;5045979;28;20025;-41
2023/09/24 00:24:18;;;;;;;1.95;1.80;;;11.40;99.90;;;;;;5046805;28;20047;-40
2023/09/24 00:26:47;;;;;;;2.20;1.70;;;11.40;99.90;;;;;;5044895;28;20061;-38
2023/09/24 00:29:15;;;;;;;1.70;1.60;;;11.40;99.90;;;;;;5042240;28;20037;-41
2023/09/24 00:31:41;;;;;;;;;;;11.40;99.90;;;;;;5045878;28;20048;-41
2023/09/24 00:34:06;;;;;;;1.70;1.60;;;11.30;99.90;;;;;;5046884;28;20007;-40
2023/09/24 00:36:35;;;;;;;2.05;1.70;;;11.30;99.90;;;;;;5044050;28;20497;-41
2023/09/24 00:39:01;;;;;;;2.22;1.77;;;11.30;99.90;;;;;;5051297;28;20052;-41
2023/09/24 00:41:27;;;;;;;1.77;1.67;;;11.20;99.90;;;;;;5046154;28;20060;-41
2023/09/24 00:43:53;;;;;;;1.77;1.67;;;11.20;99.90;;;;;;5050534;28;20072;-41
2023/09/24 00:46:21;;;;;;;2.05;1.48;;;11.00;99.90;;;;;;5051156;28;20033;-39
2023/09/24 00:48:48;;;;;;;1.50;1.40;;;10.80;99.90;;;;;;5049913;28;20492;-40
2023/09/24 00:51:21;;;;;;;3.10;1.50;;;10.80;99.90;;;;;;5046183;28;20113;-38
2023/09/24 00:53:48;;;;;;;1.90;1.60;;;10.80;99.90;;;;;;5047913;28;20024;-36
2023/09/24 00:56:14;;;;;;;2.40;1.20;;;10.80;99.90;;;;;;5047478;28;20024;-36
2023/09/24 00:58:47;;;;;;;1.60;1.50;;;10.80;99.90;;;;;;5049140;28;20040;-39
2023/09/24 01:01:13;;;;;;;1.73;1.60;;;10.80;99.90;;;;;;5048354;28;20029;-40
2023/09/24 01:03:40;;;;;;;1.50;1.40;;;10.70;99.90;;;;;;5048870;28;20036;-41
2023/09/24 01:06:06;;;;;;;2.95;1.40;;;10.60;99.90;;;;;;5048802;28;20029;-41
2023/09/24 01:08:33;;;;;;;2.67;1.70;;;10.60;99.90;;;;;;5050478;28;20029;-41
2023/09/24 01:11:00;;;;;;;1.40;1.30;;;10.60;99.90;;;;;;5049774;28;20032;-41
2023/09/24 01:13:39;;;;;;;2.13;1.92;;;10.70;99.90;;;;;;5044824;28;20068;-37
2023/09/24 01:16:09;;;;;;;2.33;1.50;;;10.70;99.90;;;;;;5050316;28;20033;-40
2023/09/24 01:18:42;;;;;;;1.77;1.45;;;10.70;99.90;;;;;;5049383;28;20116;-41
2023/09/24 01:21:16;;;;;;;2.45;1.50;;;10.50;99.90;;;;;;5048700;28;20442;-40
2023/09/24 01:23:45;;;;;;;2.13;1.30;;;10.40;99.90;;;;;;5047706;28;20031;-40
2023/09/24 01:26:12;;;;;;;1.90;1.45;;;10.40;99.90;;;;;;5048759;28;20029;-39
2023/09/24 01:28:39;;;;;;;1.77;1.20;;;10.40;99.90;;;;;;5050398;28;20052;-40
2023/09/24 01:31:05;;;;;;;1.40;1.30;;;10.30;99.90;;;;;;5048951;28;20033;-40
2023/09/24 01:33:31;;;;;;;1.40;1.30;;;10.30;99.90;;;;;;5048375;28;20550;-34
2023/09/24 01:36:17;;;;;;;1.15;1.10;;;10.30;99.90;;;;;;5046548;28;20044;-39
2023/09/24 01:38:43;;;;;;;3.63;1.40;;;10.30;99.90;;;;;;5046730;28;20091;-37
2023/09/24 01:41:10;;;;;;;1.40;1.30;;;10.30;99.90;;;;;;5045769;28;20033;-36
2023/09/24 01:43:42;;;;;;;2.83;1.50;;;10.20;99.90;;;;;;5042878;28;20519;-37
2023/09/24 01:46:08;;;;;;;2.10;1.20;;;10.20;99.90;;;;;;5049289;28;20059;-40
2023/09/24 01:48:37;;;;;;;1.55;1.45;;;10.10;99.90;;;;;;5049606;28;20084;-40
2023/09/24 01:51:12;;;;;;;1.67;1.40;;;10.10;99.90;;;;;;5049401;28;20060;-40
2023/09/24 01:53:39;;;;;;;1.45;1.35;;;10.10;99.90;;;;;;5049368;28;20037;-40
2023/09/24 01:56:07;;;;;;;1.35;1.25;;;10.10;99.90;;;;;;5049208;28;20048;-38
2023/09/24 01:58:33;;;;;;;;;;;10.00;99.90;;;;;;5046912;28;20115;-40
2023/09/24 02:00:59;;;;;;;1.10;1.08;;;9.80;99.90;;;;;;5048425;28;20393;-40
2023/09/24 02:03:24;;;;;;;1.10;1.00;;;9.70;99.90;;;;;;5043710;28;20021;-38
2023/09/24 02:05:50;;;;;;;1.30;1.20;;;9.50;99.90;;;;;;5050582;28;20382;-38
2023/09/24 02:08:16;;;;;;;1.20;1.10;;;9.50;99.90;;;;;;5047602;28;20029;-39
2023/09/24 02:10:42;;;;;;;2.65;1.25;;;9.60;99.90;;;;;;5051353;28;20036;-40
2023/09/24 02:13:10;;;;;;;1.52;1.30;;;9.60;99.90;;;;;;5044853;28;20033;-39
2023/09/24 02:15:38;;;;;;;1.75;1.40;;;9.60;99.90;;;;;;5047921;28;20617;-38
2023/09/24 02:18:05;;;;;;;2.33;1.35;;;9.60;99.90;;;;;;5045048;28;20041;-40
2023/09/24 02:22:58;;;;;;;1.17;1.08;;;9.70;99.90;;;;;;5049135;28;20174;-40
2023/09/24 02:25:28;;;;;;;1.00;1.00;;;9.70;99.90;;;;;;5043725;28;20048;-39
2023/09/24 02:27:58;;;;;;;1.23;1.13;;;9.80;99.90;;;;;;5049734;28;20032;-38
2023/09/24 02:30:27;;;;;;;1.83;1.20;;;9.70;99.90;;;;;;5042817;28;20056;-39
2023/09/24 02:32:52;;;;;;;2.80;1.35;;;9.80;99.90;;;;;;5025324;28;20037;-40
2023/09/24 02:35:18;;;;;;;1.30;1.20;;;9.80;99.90;;;;;;5019465;28;20041;-40
2023/09/24 02:37:51;;;;;;;1.40;1.30;;;9.70;99.90;;;;;;5028870;28;20037;-39
2023/09/24 02:40:21;;;;;;;2.28;1.40;;;9.70;99.90;;;;;;5025774;28;20607;-36
2023/09/24 02:42:48;;;;;;;1.40;1.30;;;9.60;99.90;;;;;;5022903;28;20128;-40
2023/09/24 02:45:15;;;;;;;1.83;1.20;;;9.60;99.90;;;;;;5026408;28;20066;-40
2023/09/24 02:47:45;;;;;;;1.35;1.30;;;9.40;99.90;;;;;;5025972;28;20033;-40
2023/09/24 02:50:14;;;;;;;1.08;1.08;;;9.40;99.90;;;;;;5026361;28;20041;-38
2023/09/24 02:52:45;;;;;;;1.70;1.60;;;9.50;99.90;;;;;;5026915;28;20030;-37
2023/09/24 02:55:13;;;;;;;1.35;1.20;;;9.50;99.90;;;;;;5025289;28;20127;-36
2023/09/24 02:57:44;;;;;;;1.38;1.27;;;9.40;99.90;;;;;;5028134;28;20052;-35
2023/09/24 03:00:19;;;;;;;1.02;1.02;;;9.40;99.90;;;;;;5023528;28;20117;-35
2023/09/24 03:02:45;;;;;;;1.10;1.10;;;9.40;99.90;;;;;;5024837;28;20049;-33
2023/09/24 03:05:12;;;;;;;2.17;1.52;;;9.40;99.90;;;;;;5023410;28;20064;-33
2023/09/24 03:07:40;;;;;;;1.25;1.15;;;9.40;99.90;;;;;;5022987;28;20033;-34
2023/09/24 03:10:09;;;;;;;1.45;1.27;;;9.30;99.90;;;;;;5027493;28;20459;-33
2023/09/24 03:12:34;;;;;;;2.45;1.38;;;9.20;99.90;;;;;;5023886;28;20048;-34
2023/09/24 03:15:01;;;;;;;3.13;1.10;;;9.20;99.90;;;;;;5027373;28;20384;-35
2023/09/24 03:17:27;;;;;;;1.30;1.20;;;9.20;99.90;;;;;;5024676;28;20034;-36
2023/09/24 03:19:53;;;;;;;1.63;1.13;;;9.20;99.90;;;;;;5019685;28;20032;-39
2023/09/24 03:22:21;;;;;;;1.63;1.30;;;9.10;99.90;;;;;;5023452;28;20034;-34
2023/09/24 03:24:47;;;;;;;1.10;1.10;;;9.10;99.90;;;;;;5024108;28;20034;-34
2023/09/24 03:27:16;;;;;;;1.70;1.30;;;9.00;99.90;;;;;;5025111;28;20040;-37
2023/09/24 03:29:45;;;;;;;1.40;1.10;;;8.90;99.90;;;;;;5030242;28;20486;-33
2023/09/24 03:32:11;;;;;;;1.38;1.30;;;8.80;99.90;;;;;;5033643;28;20494;-35
2023/09/24 03:34:37;;;;;;;1.55;1.40;;;8.80;99.90;;;;;;5044552;28;20033;-33
2023/09/24 03:37:05;;;;;;;1.40;1.30;;;8.90;99.90;;;;;;5049366;28;20043;-34
2023/09/24 03:39:30;;;;;;;1.02;1.02;;;8.90;99.90;;;;;;5045402;28;20112;-33
2023/09/24 03:41:56;;;;;;;0.90;0.90;;;8.60;99.90;;;;;;5046909;28;20459;-35
2023/09/24 03:44:22;;;;;;;1.35;0.88;;;8.60;99.90;;;;;;5045588;28;20045;-34
2023/09/24 03:46:47;;;;;;;0.68;0.68;;;8.70;99.90;;;;;;5043319;28;20029;-34
2023/09/24 03:49:13;;;;;;;0.80;0.80;;;8.80;99.90;;;;;;5043972;28;20033;-33
2023/09/24 03:51:38;;;;;;;0.80;0.80;;;8.80;99.90;;;;;;5044218;28;20482;-36
2023/09/24 03:54:04;;;;;;;0.65;0.65;;;8.80;99.90;;;;;;5044007;28;20035;-41
2023/09/24 03:56:30;;;;;;;0.60;0.60;;;8.70;99.90;;;;;;5044866;28;20121;-36
2023/09/24 03:58:55;;;;;;;0.60;0.60;;;8.70;99.90;;;;;;5047472;28;20108;-37
2023/09/24 04:01:22;;;;;;;0.75;0.75;;;8.70;99.90;;;;;;5044067;28;20041;-37
2023/09/24 04:03:48;;;;;;;0.90;0.90;;;8.70;99.90;;;;;;5048471;28;20025;-31
2023/09/24 04:06:14;;;;;;;1.08;1.02;;;8.60;99.90;;;;;;5041862;28;20098;-31
2023/09/24 04:08:40;;;;;;;1.48;0.90;;;8.60;99.90;;;;;;5049421;28;20037;-31
2023/09/24 04:11:08;;;;;;;1.60;1.50;;;8.60;99.90;;;;;;5040619;28;20086;-33
2023/09/24 04:13:35;;;;;;;2.22;1.00;;;8.60;99.90;;;;;;5047855;28;20401;-34
2023/09/24 04:16:09;;;;;;;1.08;1.08;;;8.60;99.90;;;;;;5046928;28;20040;-31
2023/09/24 04:18:35;;;;;;;1.25;1.15;;;8.60;99.90;;;;;;5043849;28;20025;-30
2023/09/24 04:21:02;;;;;;;1.48;1.27;;;8.60;99.90;;;;;;5045991;28;20040;-30
2023/09/24 04:23:28;;;;;;;2.60;1.30;;;8.50;99.90;;;;;;5045726;28;20064;-33
2023/09/24 04:25:54;;;;;;;1.83;1.27;;;8.40;99.90;;;;;;5046656;28;20025;-37
2023/09/24 04:28:20;;;;;;;1.02;1.02;;;8.40;99.90;;;;;;5044017;28;20048;-31
2023/09/24 04:30:46;;;;;;;2.58;1.10;;;8.40;99.90;;;;;;5047915;28;20029;-31
2023/09/24 04:33:12;;;;;;;5.43;1.77;;;8.30;99.90;;;;;;5045407;28;20033;-35
2023/09/24 04:35:38;;;;;;;1.40;1.30;;;8.30;99.90;;;;;;5046402;28;20035;-31
2023/09/24 04:38:05;;;;;;;1.50;1.30;;;8.30;99.90;;;;;;5043202;28;19939;-31
2023/09/24 04:40:33;;;;;;;1.33;1.23;;;8.30;99.90;;;;;;5046831;28;20037;-32
2023/09/24 04:42:59;;;;;;;1.33;1.10;;;8.10;99.90;;;;;;5046351;28;20094;-31
2023/09/24 04:45:25;;;;;;;3.05;1.50;;;8.20;99.90;;;;;;5047567;28;20490;-31
2023/09/24 04:47:50;;;;;;;1.92;1.80;;;8.10;99.90;;;;;;5051751;28;20073;-31
2023/09/24 04:50:17;;;;;;;4.30;1.60;;;8.20;99.90;;;;;;5049601;28;20029;-31
2023/09/24 04:52:44;;;;;;;1.55;1.45;;;8.10;99.90;;;;;;5045899;28;21438;-31
2023/09/24 04:55:11;;;;;;;1.40;1.30;;;8.10;99.90;;;;;;5046883;28;20032;-35
2023/09/24 04:57:37;;;;;;;1.52;1.42;;;8.00;99.90;;;;;;5049659;28;20041;-31
2023/09/24 05:00:03;;;;;;;1.60;1.35;;;8.00;99.90;;;;;;5042925;28;20029;-34
2023/09/24 05:02:29;;;;;;;1.30;1.20;;;7.80;99.90;;;;;;5043580;28;20029;-30
2023/09/24 05:04:54;;;;;;;1.10;1.10;;;7.70;99.90;;;;;;5046153;28;20115;-36
2023/09/24 05:07:20;;;;;;;1.15;1.05;;;7.80;99.90;;;;;;5043633;28;20041;-40
2023/09/24 05:09:46;;;;;;;0.73;0.73;;;7.70;99.90;;;;;;5047372;28;20417;-40
2023/09/24 05:12:13;;;;;;;0.73;0.73;;;7.40;99.90;;;;;;5046155;28;20449;-40
2023/09/24 05:14:39;;;;;;;0.85;0.85;;;7.40;99.90;;;;;;5047837;28;20033;-36
2023/09/24 05:17:04;;;;;;;0.80;0.80;;;7.50;99.90;;;;;;5047194;28;20179;-33
2023/09/24 05:19:31;;;;;;;0.90;0.90;;;7.60;99.90;;;;;;5045082;28;20068;-35
2023/09/24 05:21:56;;;;;;;2.10;1.02;;;7.50;99.90;;;;;;5041664;28;20029;-32
2023/09/24 05:24:22;;;;;;;1.50;1.20;;;7.60;99.90;;;;;;5048275;28;20628;-32
2023/09/24 05:26:47;;;;;;;1.42;1.33;;;7.60;99.90;;;;;;5048008;28;20021;-32
2023/09/24 05:29:13;;;;;;;1.23;1.13;;;7.60;99.90;;;;;;5048592;28;20098;-32
2023/09/24 05:31:39;;;;;;;1.48;1.38;;;7.60;99.90;;;;;;5042962;28;20045;-36
2023/09/24 05:34:05;;;;;;;1.58;1.45;;;7.60;99.90;;;;;;5049829;28;20119;-33
2023/09/24 05:36:31;;;;;;;1.63;1.52;;;7.70;99.90;;;;;;5051096;28;20051;-33
2023/09/24 05:39:01;;;;;;;1.70;1.50;;;7.70;99.90;;;;;;5048642;28;20032;-33
2023/09/24 05:41:27;;;;;;;1.20;1.20;;;7.70;99.90;;;;;;5046181;28;20025;-33
2023/09/24 05:43:54;;;;;;;1.30;1.23;;;7.70;99.90;;;;;;5062082;28;20053;-33
2023/09/24 05:46:20;;;;;;;2.65;1.80;;;7.80;99.90;;;;;;5048000;28;20029;-32
2023/09/24 05:48:46;;;;;;;2.33;1.35;;;7.80;99.90;;;;;;5046303;28;20097;-35
2023/09/24 05:51:14;;;;;;;2.20;1.35;;;7.80;99.90;;;;;;5045501;28;20041;-35
2023/09/24 05:53:43;;;;;;;2.05;1.42;;;7.80;99.90;;;;;;5047920;28;20031;-34
2023/09/24 05:56:09;;;;;;;7.22;1.60;;;7.80;99.90;;;;;;5046808;28;20047;-33
2023/09/24 05:58:35;;;;;;;2.47;1.50;;;7.90;99.90;;;;;;5050259;28;20020;-33
2023/09/24 06:01:03;;;;;;;3.17;1.50;;;7.90;99.90;;;;;;5048671;28;20499;-34
2023/09/24 06:03:29;;;;;;;;;;;8.00;99.90;;;;;;5050447;28;20123;-33
2023/09/24 06:05:55;;;;;;;2.85;1.23;;;8.00;99.90;;;;;;5029524;28;19954;-33
2023/09/24 06:08:20;;;;;;;1.60;1.50;;;8.00;99.90;;;;;;5040961;28;20029;-33
2023/09/24 06:10:47;;;;;;;1.25;1.13;;;8.00;99.90;;;;;;5046900;28;20020;-34
2023/09/24 06:13:15;;;;;;;1.00;1.00;;;7.90;99.90;;;;;;5044030;28;20029;-34
2023/09/24 06:15:44;;;;;;;1.30;1.20;;;7.90;99.90;;;;;;5062594;28;20028;-40
2023/09/24 06:18:11;;;;;;;2.28;2.08;;;8.00;99.90;;;;;;5050748;28;20021;-36
2023/09/24 06:20:38;;;;;;;1.58;1.48;;;8.10;99.90;;;;;;5045213;28;20078;-37
2023/09/24 06:23:04;;;;;;;4.80;1.83;;;8.20;99.90;;;;;;5047699;28;20021;-40
2023/09/24 06:25:30;;;;;;;3.53;1.73;;;8.30;99.90;;;;;;5047899;28;20033;-40
2023/09/24 06:27:56;;;;;;;11.85;2.45;;;8.40;99.90;;;;;;5048530;28;20027;-39
2023/09/24 06:30:22;;;;;;;2.30;2.10;;;8.40;99.90;;;;;;5044214;28;20433;-40
2023/09/24 06:32:47;;;;;;;49.20;7.95;;;8.50;99.90;;;;;;5045012;28;20039;-40
2023/09/24 06:35:13;;;;;;;1.70;1.60;;;8.50;99.90;;;;;;5047821;28;20029;-40
2023/09/24 06:37:38;;;;;;;7.40;2.08;;;8.60;99.90;;;;;;5049346;28;20116;-40
2023/09/24 06:40:05;;;;;;;33.88;4.07;;;8.70;99.90;;;;;;5048259;28;20140;-40
2023/09/24 06:42:31;;;;;;;1.85;1.75;;;8.80;99.90;;;;;;5050686;28;20024;-39
2023/09/24 06:44:57;;;;;;;1.63;1.45;;;8.80;99.90;;;;;;5046619;28;20406;-38
2023/09/24 06:47:22;;;;;;;1.65;1.55;;;8.80;99.90;;;;;;5048878;28;20040;-40
2023/09/24 06:49:51;;;;;;;1.80;1.70;;;8.90;99.90;;;;;;5038357;28;20045;-39
2023/09/24 06:52:17;;;;;;;2.00;1.88;;;9.00;99.90;;;;;;5046297;28;20033;-37
2023/09/24 06:54:42;;;;;;;2.35;1.90;;;9.00;99.90;;;;;;5046297;28;20036;-40
2023/09/24 06:57:08;;;;;;;2.97;1.88;;;9.10;99.90;;;;;;5047811;28;20082;-39
2023/09/24 06:59:33;;;;;;;2.33;1.80;;;9.10;99.90;;;;;;5047189;28;20033;-39
2023/09/24 07:01:59;;;;;;;2.13;1.92;;;9.20;99.90;;;;;;5048473;28;20033;-37
2023/09/24 07:04:25;;;;;;;1.80;1.70;;;9.10;99.90;;;;;;5044684;28;20020;-40
2023/09/24 07:06:51;;;;;;;1.75;1.65;;;9.20;99.90;;;;;;5050223;28;20029;-38
2023/09/24 07:09:17;;;;;;;1.77;1.67;;;9.20;99.90;;;;;;5047643;28;20532;-40
2023/09/24 07:11:43;;;;;;;2.58;2.08;;;9.20;99.90;;;;;;5048446;28;20029;-39
2023/09/24 07:14:09;;;;;;;2.38;1.88;;;9.30;99.90;;;;;;5047737;28;20029;-39
2023/09/24 07:16:35;;;;;;;2.13;1.98;;;9.30;99.90;;;;;;5047721;28;20116;-40
2023/09/24 07:19:01;;;;;;;2.88;1.75;;;9.40;99.90;;;;;;5048017;28;20099;-40
2023/09/24 07:21:30;;;;;;;2.15;2.05;;;9.40;99.90;;;;;;5042883;28;20036;-40
2023/09/24 07:23:57;;;;;;;2.38;2.17;;;9.50;99.90;;;;;;5040628;28;20546;-38
2023/09/24 07:26:23;;;;;;;3.00;2.20;;;9.60;99.90;;;;;;5029226;28;20025;-36
2023/09/24 07:28:49;;;;;;;3.70;2.47;;;9.60;99.90;;;;;;5039664;28;20553;-40
2023/09/24 07:31:21;;;;;;;2.67;2.45;;;9.70;99.90;;;;;;5048603;28;20033;-40
2023/09/24 07:33:47;;;;;;;11.32;7.47;;;9.70;99.90;;;;;;5044123;28;20044;-39
2023/09/24 07:36:14;;;;;;;4.38;2.40;;;9.80;99.90;;;;;;5049120;28;20033;-40
2023/09/24 07:38:40;;;;;;;3.33;2.72;;;10.00;99.90;;;;;;5044584;28;20029;-39
2023/09/24 07:41:09;;;;;;;4.60;2.88;;;10.10;99.90;;;;;;5046099;28;20064;-40
2023/09/24 07:43:39;;;;;;;2.63;2.42;;;10.50;99.90;;;;;;5045803;28;20021;-40
2023/09/24 07:46:06;;;;;;;3.28;2.70;;;10.70;99.90;;;;;;5045068;28;20092;-40
2023/09/24 07:48:32;;;;;;;7.18;2.60;;;10.90;99.90;;;;;;5047048;28;20108;-37
2023/09/24 07:50:58;;;;;;;2.88;2.50;;;11.10;99.90;;;;;;5047533;28;20112;-40
2023/09/24 07:53:24;;;;;;;2.60;2.40;;;11.20;99.90;;;;;;5048060;28;20043;-41
2023/09/24 07:55:57;;;;;;;3.78;2.80;;;11.30;99.90;;;;;;5048653;28;20021;-40
2023/09/24 07:58:24;;;;;;;6.20;2.75;;;11.40;99.90;;;;;;5043997;28;20036;-38
2023/09/24 08:00:51;;;;;;;3.97;2.60;;;11.60;99.90;;;;;;5046079;28;20140;-40
2023/09/24 08:03:17;;;;;;;2.67;2.47;;;11.70;99.90;;;;;;5057111;28;20051;-40
2023/09/24 08:05:42;;;;;;;4.45;2.50;;;11.80;99.90;;;;;;5043823;28;20078;-38
2023/09/24 08:08:08;;;;;;;5.20;2.60;;;11.90;99.90;;;;;;5045853;28;20044;-39
2023/09/24 08:10:34;;;;;;;3.60;2.90;;;12.00;99.90;;;;;;5044975;28;20482;-40
2023/09/24 08:13:02;;;;;;;3.28;2.80;;;12.20;99.90;;;;;;5044855;28;20033;-39
2023/09/24 08:15:28;;;;;;;3.95;2.65;;;12.40;99.90;;;;;;5044954;28;20881;-40
2023/09/24 08:17:54;;;;;;;3.67;2.80;;;12.50;99.90;;;;;;5046464;28;20043;-36
2023/09/24 08:20:19;;;;;;;3.35;2.35;;;12.70;99.90;;;;;;5045296;28;20371;-40
2023/09/24 08:22:45;;;;;;;3.03;2.70;;;12.80;99.90;;;;;;5044451;28;20021;-38
2023/09/24 08:25:10;;;;;;;5.07;2.78;;;12.90;99.90;;;;;;5045006;28;20660;-36
2023/09/24 08:27:36;;;;;;;2.13;1.90;;;12.90;99.90;;;;;;5049278;28;20176;-40
2023/09/24 08:30:03;;;;;;;3.15;2.10;;;13.00;99.90;;;;;;5041652;28;20386;-40
2023/09/24 08:32:28;;;;;;;3.33;2.22;;;13.00;99.90;;;;;;5044534;28;20111;-39
2023/09/24 08:34:54;;;;;;;3.65;2.17;;;13.10;99.90;;;;;;5049188;28;20120;-36
2023/09/24 08:37:19;;;;;;;2.72;2.10;;;13.20;99.90;;;;;;5048914;28;20036;-30
2023/09/24 08:39:45;;;;;;;5.35;2.30;;;13.30;99.90;;;;;;5047118;28;20033;-33
2023/09/24 08:42:14;;;;;;;3.88;2.40;;;13.40;99.90;;;;;;5045800;28;20033;-34
2023/09/24 08:44:40;;;;;;;2.40;1.90;;;13.60;99.90;;;;;;5047716;28;20052;-30
2023/09/24 08:47:06;;;;;;;3.78;1.73;;;13.80;99.90;;;;;;5046663;28;20433;-31
2023/09/24 08:49:32;;;;;;;2.97;1.83;;;13.90;99.90;;;;;;5045985;28;20032;-32
2023/09/24 08:52:00;;;;;;;2.88;1.58;;;14.00;99.90;;;;;;5045605;28;20028;-35
2023/09/24 08:54:27;;;;;;;1.90;1.70;;;14.00;99.90;;;;;;5040574;28;20059;-29
2023/09/24 08:56:53;;;;;;;2.28;1.98;;;14.00;99.90;;;;;;5044945;28;20037;-36
2023/09/24 08:59:19;;;;;;;5.47;2.13;;;14.20;99.90;;;;;;5050248;28;20032;-30
2023/09/24 09:01:53;;;;;;;3.63;1.77;;;14.20;99.90;;;;;;5048442;28;20447;-32
2023/09/24 09:04:18;;;;;;;1.70;1.60;;;14.20;99.90;;;;;;5079953;28;20470;-30
2023/09/24 09:06:44;;;;;;;3.92;1.90;;;14.30;99.90;;;;;;5051329;28;20063;-30
2023/09/24 09:09:10;;;;;;;4.18;2.00;;;14.50;99.90;;;;;;5042870;28;20028;-34
2023/09/24 09:11:46;;;;;;;3.85;1.80;;;14.60;99.90;;;;;;5048161;28;20025;-30
2023/09/24 09:14:12;;;;;;;4.10;2.42;;;14.70;99.90;;;;;;5061144;28;20037;-36
2023/09/24 09:16:57;;;;;;;2.00;1.80;;;14.70;99.90;;;;;;5045366;28;20128;-34
2023/09/24 09:19:24;;;;;;;5.30;2.45;;;14.80;99.90;;;;;;5049259;28;20025;-31
2023/09/24 09:21:49;;;;;;;3.08;1.80;;;14.90;99.90;;;;;;5043143;28;20036;-31
2023/09/24 09:24:25;;;;;;;2.97;1.50;;;14.90;99.90;;;;;;5049788;28;20806;-29
2023/09/24 09:26:55;;;;;;;2.97;1.50;;;14.80;99.90;;;;;;5047141;28;20529;-30
2023/09/24 09:29:25;;;;;;;2.88;1.83;;;14.70;99.90;;;;;;5047422;28;20029;-29
2023/09/24 09:31:52;;;;;;;2.55;1.88;;;14.70;99.90;;;;;;5046120;28;20048;-30
2023/09/24 09:34:18;;;;;;;1.40;1.30;;;14.90;99.90;;;;;;5049652;28;20025;-31
2023/09/24 09:36:43;;;;;;;2.17;1.60;;;15.10;99.90;;;;;;5047867;28;20033;-31
2023/09/24 09:39:09;;;;;;;1.45;1.30;;;15.30;99.90;;;;;;5048847;28;20025;-31
2023/09/24 09:41:35;;;;;;;2.22;1.67;;;15.40;99.90;;;;;;5044158;28;20455;-31
2023/09/24 09:44:06;;;;;;;2.92;1.63;;;15.60;99.90;;;;;;5047669;28;20099;-30
2023/09/24 09:46:34;;;;;;;1.63;1.48;;;15.60;99.90;;;;;;5048393;28;20032;-31
2023/09/24 09:49:04;;;;;;;7.38;1.88;;;15.50;99.90;;;;;;5046874;28;20860;-31
2023/09/24 09:51:38;;;;;;;3.80;1.40;;;15.60;99.90;;;;;;5048153;28;20137;-30
2023/09/24 09:54:10;;;;;;;2.20;1.23;;;15.60;99.90;;;;;;5049009;28;20025;-39
2023/09/24 09:56:36;;;;;;;1.88;1.20;;;15.70;99.90;;;;;;5063971;28;20029;-40
2023/09/24 09:59:04;;;;;;;1.80;1.20;;;15.70;99.90;;;;;;5050568;28;20471;-40
2023/09/24 10:01:29;;;;;;;2.35;1.40;;;15.50;99.90;;;;;;5050134;28;20033;-40
2023/09/24 10:03:56;;;;;;;2.40;1.40;;;15.60;99.90;;;;;;5046690;28;20572;-36
2023/09/24 10:06:23;;;;;;;2.75;1.15;;;15.80;99.90;;;;;;5048249;28;20117;-40
2023/09/24 10:08:49;;;;;;;2.17;1.20;;;15.90;99.90;;;;;;5046131;28;20044;-37
2023/09/24 10:11:30;;;;;;;1.63;1.10;;;15.80;99.90;;;;;;5045053;28;20025;-40
2023/09/24 10:13:57;;;;;;;2.25;1.30;;;15.40;99.90;;;;;;5046151;28;20037;-40
2023/09/24 10:16:25;;;;;;;1.48;1.00;;;15.60;99.90;;;;;;5047950;28;20075;-40
2023/09/24 10:19:04;;;;;;;1.20;1.10;;;15.50;99.90;;;;;;5047103;28;20040;-40
2023/09/24 10:21:38;;;;;;;1.38;1.00;;;15.20;99.90;;;;;;5048026;28;20498;-36
2023/09/24 10:24:09;;;;;;;0.90;0.90;;;15.00;99.90;;;;;;5047549;28;20025;-40
2023/09/24 10:27:06;;;;;;;2.85;1.40;;;14.90;99.90;;;;;;5046721;28;20786;-38
2023/09/24 10:29:58;;;;;;;2.10;1.20;;;14.70;99.90;;;;;;5044941;28;20045;-40
2023/09/24 10:32:25;;;;;;;1.83;1.10;;;14.70;99.90;;;;;;5047246;28;20074;-39
2023/09/24 10:34:54;;;;;;;2.77;1.30;;;14.80;99.90;;;;;;5049894;28;20037;-40
2023/09/24 10:37:30;;;;;;;3.70;1.20;;;14.90;99.90;;;;;;5065028;28;20462;-38
2023/09/24 10:40:04;;;;;;;2.22;1.33;;;14.90;99.90;;;;;;5049640;28;20112;-39
2023/09/24 10:42:43;;;;;;;2.25;1.40;;;14.90;99.90;;;;;;5058996;28;20446;-40
2023/09/24 10:45:12;;;;;;;6.93;1.33;;;15.00;99.90;;;;;;5044281;28;20951;-40
2023/09/24 10:47:38;;;;;;;2.92;1.63;;;15.30;99.90;;;;;;5042070;28;20428;-40
2023/09/24 10:50:05;;;;;;;5.80;1.50;;;15.30;99.90;;;;;;5048377;28;20094;-38
2023/09/24 10:52:53;;;;;;;2.10;1.20;;;15.40;99.90;;;;;;5046595;28;20120;-39
2023/09/24 10:55:35;;;;;;;1.30;1.20;;;15.60;99.90;;;;;;5043486;28;20036;-37
2023/09/24 10:58:13;;;;;;;1.95;1.30;;;15.80;99.90;;;;;;5046658;28;20961;-41
2023/09/24 11:00:43;;;;;;;2.03;1.25;;;16.00;99.90;;;;;;5041156;28;20044;-38
2023/09/24 11:03:13;;;;;;;2.13;1.20;;;16.20;99.90;;;;;;5041507;28;20071;-39
2023/09/24 11:05:45;;;;;;;1.50;0.98;;;16.30;99.90;;;;;;5048318;28;20462;-39
2023/09/24 11:08:13;;;;;;;2.95;1.20;;;16.40;99.90;;;;;;5044601;28;20044;-36
2023/09/24 11:10:39;;;;;;;;;;;16.00;99.90;;;;;;5046001;28;20036;-38
2023/09/24 11:13:06;;;;;;;1.55;1.17;;;16.00;99.90;;;;;;5045529;28;19970;-40
2023/09/24 11:15:38;;;;;;;2.25;2.05;;;16.10;99.90;;;;;;5045260;28;20608;-35
2023/09/24 11:18:06;;;;;;;1.52;1.25;;;16.10;99.90;;;;;;5044592;28;20490;-41
2023/09/24 11:20:32;;;;;;;2.13;1.13;;;16.20;99.90;;;;;;5043960;28;20641;-41
2023/09/24 11:23:01;;;;;;;1.52;1.10;;;16.30;99.90;;;;;;5038655;28;20370;-39
2023/09/24 11:25:28;;;;;;;1.05;1.00;;;16.30;99.90;;;;;;5043989;28;20546;-42
2023/09/24 11:27:56;;;;;;;2.20;1.10;;;16.40;99.90;;;;;;5045379;28;20649;-34
2023/09/24 11:30:39;;;;;;;3.08;1.10;;;16.50;99.90;;;;;;5043123;28;20502;-35
2023/09/24 11:33:18;;;;;;;1.90;1.20;;;16.60;99.90;;;;;;5042048;28;20115;-41
2023/09/24 11:35:44;;;;;;;1.67;1.10;;;16.90;99.90;;;;;;5014709;28;20038;-42
2023/09/24 11:38:11;;;;;;;1.23;1.10;;;16.80;99.90;;;;;;5022113;28;20471;-36
2023/09/24 11:40:38;;;;;;;1.33;1.23;;;16.80;99.90;;;;;;5023696;28;20052;-41
2023/09/24 11:43:06;;;;;;;1.07;1.00;;;16.80;99.90;;;;;;5021483;28;20028;-40
2023/09/24 11:45:53;;;;;;;1.33;1.20;;;16.80;99.90;;;;;;5023219;28;20440;-41
2023/09/24 11:48:23;;;;;;;2.47;1.02;;;16.60;99.90;;;;;;5025747;28;20085;-42
2023/09/24 11:50:51;;;;;;;1.90;1.70;;;16.30;99.90;;;;;;5018835;28;20044;-39
2023/09/24 11:53:19;;;;;;;2.92;1.20;;;16.10;99.90;;;;;;5026924;28;20041;-41
2023/09/24 11:55:45;;;;;;;0.95;0.90;;;16.30;99.90;;;;;;5027095;28;20438;-41
2023/09/24 11:58:11;;;;;;;1.02;0.80;;;16.50;99.90;;;;;;5028994;28;20042;-36
2023/09/24 12:00:43;;;;;;;0.90;0.85;;;16.50;99.90;;;;;;5023927;28;20559;-41
2023/09/24 12:03:09;;;;;;;1.65;0.90;;;16.50;99.90;;;;;;5026104;28;20799;-39
2023/09/24 12:05:34;;;;;;;3.15;1.48;;;16.50;99.90;;;;;;5024615;28;20022;-41
2023/09/24 12:08:03;;;;;;;2.67;1.10;;;16.50;99.90;;;;;;5020183;28;20057;-41
2023/09/24 12:10:29;;;;;;;1.85;1.15;;;16.60;99.90;;;;;;5026698;28;20033;-37
2023/09/24 12:13:01;;;;;;;1.52;1.10;;;16.60;99.90;;;;;;5028370;28;20112;-35
2023/09/24 12:15:31;;;;;;;1.70;1.20;;;16.70;99.90;;;;;;5028530;28;20036;-40
2023/09/24 12:17:57;;;;;;;2.00;1.30;;;16.70;99.90;;;;;;5023950;28;20518;-40
2023/09/24 12:20:23;;;;;;;2.17;1.50;;;16.30;99.90;;;;;;5040917;28;20033;-41
2023/09/24 12:22:49;;;;;;;1.75;0.93;;;16.20;99.90;;;;;;5027396;28;20040;-39
2023/09/24 12:25:15;;;;;;;1.50;0.95;;;16.00;99.90;;;;;;5024586;28;20021;-41
2023/09/24 12:27:41;;;;;;;1.33;0.95;;;16.00;99.90;;;;;;5029600;28;20094;-40
2023/09/24 12:30:10;;;;;;;1.63;1.10;;;16.20;99.90;;;;;;5026196;28;20021;-37
2023/09/24 12:32:36;;;;;;;1.75;1.00;;;16.50;99.90;;;;;;5044678;28;20087;-39
2023/09/24 12:35:07;;;;;;;1.65;1.30;;;16.70;99.90;;;;;;5049162;28;20029;-41
2023/09/24 12:37:34;;;;;;;1.63;1.50;;;16.70;99.90;;;;;;5047459;28;20568;-39
2023/09/24 12:40:00;;;;;;;1.50;1.27;;;16.80;99.90;;;;;;5049450;28;20053;-41
2023/09/24 12:42:30;;;;;;;1.50;1.20;;;16.80;99.90;;;;;;5047978;28;20028;-41
2023/09/24 12:44:57;;;;;;;1.73;1.27;;;16.70;99.90;;;;;;5079919;28;20041;-40
2023/09/24 12:47:23;;;;;;;2.72;1.38;;;16.70;99.90;;;;;;5046115;28;20024;-40
2023/09/24 12:49:48;;;;;;;1.10;1.00;;;16.60;99.90;;;;;;5050740;28;20017;-41
2023/09/24 12:52:14;;;;;;;1.25;1.00;;;16.60;99.90;;;;;;5078649;28;20383;-39
2023/09/24 12:54:40;;;;;;;1.75;1.17;;;16.80;99.90;;;;;;5048833;28;20029;-40
2023/09/24 12:57:06;;;;;;;1.88;1.13;;;16.80;99.90;;;;;;5045534;28;20036;-39
2023/09/24 12:59:31;;;;;;;1.33;1.15;;;16.90;99.90;;;;;;5044887;28;20530;-39